sensor_id;sensor_type;location;lat;lon;timestamp;P1;durP1;ratioP1;P2;durP2;ratioP2
41964;SDS011;50120;53.250;8.702;2022-07-23T00:00:00;4.45;;;1.55;;
41964;SDS011;50120;53.250;8.702;2022-07-23T00:02:26;3.67;;;1.90;;
41964;SDS011;50120;53.250;8.702;2022-07-23T00:04:52;3.13;;;1.70;;
41964;SDS011;50120;53.250;8.702;2022-07-23T00:07:18;3.80;;;1.70;;
41964;SDS011;50120;53.250;8.702;2022-07-23T00:09:43;3.95;;;1.85;;
41964;SDS011;50120;53.250;8.702;2022-07-23T00:12:09;3.65;;;1.60;;
41964;SDS011;50120;53.250;8.702;2022-07-23T00:14:35;2.92;;;1.70;;
41964;SDS011;50120;53.250;8.702;2022-07-23T00:17:00;3.47;;;1.77;;
41964;SDS011;50120;53.250;8.702;2022-07-23T00:19:26;4.70;;;1.90;;
41964;SDS011;50120;53.250;8.702;2022-07-23T00:21:54;3.08;;;1.80;;
41964;SDS011;50120;53.250;8.702;2022-07-23T00:24:19;3.53;;;1.70;;
41964;SDS011;50120;53.250;8.702;2022-07-23T00:26:46;4.95;;;1.70;;
41964;SDS011;50120;53.250;8.702;2022-07-23T00:29:11;3.38;;;1.90;;
41964;SDS011;50120;53.250;8.702;2022-07-23T00:31:37;4.63;;;1.77;;
41964;SDS011;50120;53.250;8.702;2022-07-23T00:34:03;4.05;;;1.90;;
41964;SDS011;50120;53.250;8.702;2022-07-23T00:36:29;4.60;;;2.20;;
41964;SDS011;50120;53.250;8.702;2022-07-23T00:38:56;4.53;;;2.08;;
41964;SDS011;50120;53.250;8.702;2022-07-23T00:41:23;4.40;;;1.92;;
41964;SDS011;50120;53.250;8.702;2022-07-23T00:43:48;4.65;;;2.53;;
41964;SDS011;50120;53.250;8.702;2022-07-23T00:46:20;4.63;;;2.22;;
41964;SDS011;50120;53.250;8.702;2022-07-23T00:48:47;5.90;;;2.40;;
41964;SDS011;50120;53.250;8.702;2022-07-23T00:51:14;3.85;;;2.38;;
41964;SDS011;50120;53.250;8.702;2022-07-23T00:53:41;4.78;;;2.35;;
41964;SDS011;50120;53.250;8.702;2022-07-23T00:56:07;4.63;;;2.28;;
41964;SDS011;50120;53.250;8.702;2022-07-23T00:58:34;4.20;;;2.47;;
41964;SDS011;50120;53.250;8.702;2022-07-23T01:01:01;4.82;;;2.17;;
41964;SDS011;50120;53.250;8.702;2022-07-23T01:03:28;6.60;;;2.33;;
41964;SDS011;50120;53.250;8.702;2022-07-23T01:05:53;4.47;;;1.85;;
41964;SDS011;50120;53.250;8.702;2022-07-23T01:08:19;4.60;;;2.58;;
41964;SDS011;50120;53.250;8.702;2022-07-23T01:10:46;6.63;;;2.20;;
41964;SDS011;50120;53.250;8.702;2022-07-23T01:13:14;4.13;;;2.35;;
41964;SDS011;50120;53.250;8.702;2022-07-23T01:15:39;5.82;;;2.20;;
41964;SDS011;50120;53.250;8.702;2022-07-23T01:18:06;5.78;;;2.30;;
41964;SDS011;50120;53.250;8.702;2022-07-23T01:20:32;6.25;;;2.30;;
41964;SDS011;50120;53.250;8.702;2022-07-23T01:22:58;6.57;;;2.65;;
41964;SDS011;50120;53.250;8.702;2022-07-23T01:25:24;4.78;;;2.20;;
41964;SDS011;50120;53.250;8.702;2022-07-23T01:27:51;4.10;;;2.05;;
41964;SDS011;50120;53.250;8.702;2022-07-23T01:30:18;4.53;;;2.28;;
41964;SDS011;50120;53.250;8.702;2022-07-23T01:32:45;3.85;;;2.17;;
41964;SDS011;50120;53.250;8.702;2022-07-23T01:35:11;7.18;;;2.42;;
41964;SDS011;50120;53.250;8.702;2022-07-23T01:37:37;3.58;;;2.20;;
41964;SDS011;50120;53.250;8.702;2022-07-23T01:40:04;4.40;;;2.38;;
41964;SDS011;50120;53.250;8.702;2022-07-23T01:42:30;6.30;;;2.28;;
41964;SDS011;50120;53.250;8.702;2022-07-23T01:44:56;3.95;;;1.90;;
41964;SDS011;50120;53.250;8.702;2022-07-23T01:47:22;4.40;;;2.20;;
41964;SDS011;50120;53.250;8.702;2022-07-23T01:49:48;3.53;;;2.70;;
41964;SDS011;50120;53.250;8.702;2022-07-23T01:52:14;6.78;;;2.40;;
41964;SDS011;50120;53.250;8.702;2022-07-23T01:54:40;5.88;;;2.03;;
41964;SDS011;50120;53.250;8.702;2022-07-23T01:57:06;8.48;;;2.00;;
41964;SDS011;50120;53.250;8.702;2022-07-23T01:59:32;4.13;;;2.30;;
41964;SDS011;50120;53.250;8.702;2022-07-23T02:01:58;3.88;;;2.20;;
41964;SDS011;50120;53.250;8.702;2022-07-23T02:04:24;5.10;;;2.10;;
41964;SDS011;50120;53.250;8.702;2022-07-23T02:06:50;2.63;;;1.92;;
41964;SDS011;50120;53.250;8.702;2022-07-23T02:09:17;5.55;;;2.15;;
41964;SDS011;50120;53.250;8.702;2022-07-23T02:11:43;5.60;;;1.95;;
41964;SDS011;50120;53.250;8.702;2022-07-23T02:14:09;6.30;;;1.92;;
41964;SDS011;50120;53.250;8.702;2022-07-23T02:16:34;6.97;;;1.83;;
41964;SDS011;50120;53.250;8.702;2022-07-23T02:19:00;3.53;;;2.10;;
41964;SDS011;50120;53.250;8.702;2022-07-23T02:21:27;6.13;;;2.13;;
41964;SDS011;50120;53.250;8.702;2022-07-23T02:23:52;3.70;;;2.00;;
41964;SDS011;50120;53.250;8.702;2022-07-23T02:26:18;3.28;;;1.73;;
41964;SDS011;50120;53.250;8.702;2022-07-23T02:28:44;4.72;;;1.90;;
41964;SDS011;50120;53.250;8.702;2022-07-23T02:31:10;3.47;;;2.10;;
41964;SDS011;50120;53.250;8.702;2022-07-23T02:33:35;9.57;;;2.63;;
41964;SDS011;50120;53.250;8.702;2022-07-23T02:36:01;3.53;;;2.17;;
41964;SDS011;50120;53.250;8.702;2022-07-23T02:38:29;9.25;;;2.38;;
41964;SDS011;50120;53.250;8.702;2022-07-23T02:40:55;4.25;;;2.45;;
41964;SDS011;50120;53.250;8.702;2022-07-23T02:43:20;6.00;;;3.10;;
41964;SDS011;50120;53.250;8.702;2022-07-23T02:45:46;4.82;;;3.05;;
41964;SDS011;50120;53.250;8.702;2022-07-23T02:48:12;6.10;;;2.70;;
41964;SDS011;50120;53.250;8.702;2022-07-23T02:50:38;6.07;;;2.70;;
41964;SDS011;50120;53.250;8.702;2022-07-23T02:53:04;6.72;;;3.00;;
41964;SDS011;50120;53.250;8.702;2022-07-23T02:55:29;5.70;;;3.00;;
41964;SDS011;50120;53.250;8.702;2022-07-23T02:57:58;4.95;;;3.00;;
41964;SDS011;50120;53.250;8.702;2022-07-23T03:00:24;6.40;;;3.10;;
41964;SDS011;50120;53.250;8.702;2022-07-23T03:02:51;4.90;;;2.80;;
41964;SDS011;50120;53.250;8.702;2022-07-23T03:05:17;5.28;;;3.17;;
41964;SDS011;50120;53.250;8.702;2022-07-23T03:07:43;6.20;;;3.38;;
41964;SDS011;50120;53.250;8.702;2022-07-23T03:10:08;8.13;;;3.85;;
41964;SDS011;50120;53.250;8.702;2022-07-23T03:12:34;5.63;;;3.80;;
41964;SDS011;50120;53.250;8.702;2022-07-23T03:15:00;7.45;;;4.15;;
41964;SDS011;50120;53.250;8.702;2022-07-23T03:17:26;5.70;;;4.00;;
41964;SDS011;50120;53.250;8.702;2022-07-23T03:19:52;8.73;;;3.92;;
41964;SDS011;50120;53.250;8.702;2022-07-23T03:22:17;8.52;;;3.78;;
41964;SDS011;50120;53.250;8.702;2022-07-23T03:24:43;7.80;;;3.88;;
41964;SDS011;50120;53.250;8.702;2022-07-23T03:27:19;6.45;;;4.40;;
41964;SDS011;50120;53.250;8.702;2022-07-23T03:32:31;5.88;;;3.33;;
41964;SDS011;50120;53.250;8.702;2022-07-23T03:34:56;9.90;;;3.88;;
41964;SDS011;50120;53.250;8.702;2022-07-23T03:37:25;7.28;;;4.05;;
41964;SDS011;50120;53.250;8.702;2022-07-23T03:39:50;6.63;;;3.70;;
41964;SDS011;50120;53.250;8.702;2022-07-23T03:42:16;7.53;;;3.88;;
41964;SDS011;50120;53.250;8.702;2022-07-23T03:44:42;7.72;;;3.40;;
41964;SDS011;50120;53.250;8.702;2022-07-23T03:47:08;5.22;;;3.65;;
41964;SDS011;50120;53.250;8.702;2022-07-23T03:49:34;7.25;;;3.78;;
41964;SDS011;50120;53.250;8.702;2022-07-23T03:52:00;7.07;;;4.07;;
41964;SDS011;50120;53.250;8.702;2022-07-23T03:54:26;6.90;;;3.45;;
41964;SDS011;50120;53.250;8.702;2022-07-23T03:56:52;4.00;;;3.30;;
41964;SDS011;50120;53.250;8.702;2022-07-23T03:59:18;7.20;;;3.67;;
41964;SDS011;50120;53.250;8.702;2022-07-23T04:01:43;6.03;;;3.45;;
41964;SDS011;50120;53.250;8.702;2022-07-23T04:04:09;8.25;;;4.30;;
41964;SDS011;50120;53.250;8.702;2022-07-23T04:06:35;6.32;;;3.70;;
41964;SDS011;50120;53.250;8.702;2022-07-23T04:09:01;8.23;;;4.28;;
41964;SDS011;50120;53.250;8.702;2022-07-23T04:11:27;6.07;;;3.97;;
41964;SDS011;50120;53.250;8.702;2022-07-23T04:13:53;7.22;;;4.03;;
41964;SDS011;50120;53.250;8.702;2022-07-23T04:16:19;6.10;;;3.80;;
41964;SDS011;50120;53.250;8.702;2022-07-23T04:18:45;5.25;;;3.40;;
41964;SDS011;50120;53.250;8.702;2022-07-23T04:21:11;8.45;;;3.63;;
41964;SDS011;50120;53.250;8.702;2022-07-23T04:23:37;6.60;;;3.47;;
41964;SDS011;50120;53.250;8.702;2022-07-23T04:26:02;5.45;;;3.63;;
41964;SDS011;50120;53.250;8.702;2022-07-23T04:28:28;8.30;;;3.75;;
41964;SDS011;50120;53.250;8.702;2022-07-23T04:30:57;6.95;;;3.42;;
41964;SDS011;50120;53.250;8.702;2022-07-23T04:33:23;3.92;;;2.88;;
41964;SDS011;50120;53.250;8.702;2022-07-23T04:35:49;7.82;;;3.50;;
41964;SDS011;50120;53.250;8.702;2022-07-23T04:38:15;7.35;;;3.00;;
41964;SDS011;50120;53.250;8.702;2022-07-23T04:40:41;5.22;;;3.13;;
41964;SDS011;50120;53.250;8.702;2022-07-23T04:43:07;4.85;;;2.67;;
41964;SDS011;50120;53.250;8.702;2022-07-23T04:45:33;5.10;;;2.60;;
41964;SDS011;50120;53.250;8.702;2022-07-23T04:47:59;6.35;;;2.70;;
41964;SDS011;50120;53.250;8.702;2022-07-23T04:50:25;5.32;;;2.83;;
41964;SDS011;50120;53.250;8.702;2022-07-23T04:52:50;5.57;;;2.95;;
41964;SDS011;50120;53.250;8.702;2022-07-23T04:55:16;5.75;;;2.78;;
41964;SDS011;50120;53.250;8.702;2022-07-23T04:57:42;6.57;;;2.80;;
41964;SDS011;50120;53.250;8.702;2022-07-23T05:00:08;4.97;;;2.88;;
41964;SDS011;50120;53.250;8.702;2022-07-23T05:02:34;6.15;;;3.03;;
41964;SDS011;50120;53.250;8.702;2022-07-23T05:05:00;5.07;;;2.78;;
41964;SDS011;50120;53.250;8.702;2022-07-23T05:07:26;6.95;;;2.80;;
41964;SDS011;50120;53.250;8.702;2022-07-23T05:09:52;7.13;;;2.95;;
41964;SDS011;50120;53.250;8.702;2022-07-23T05:12:18;6.20;;;2.83;;
41964;SDS011;50120;53.250;8.702;2022-07-23T05:14:43;5.57;;;2.90;;
41964;SDS011;50120;53.250;8.702;2022-07-23T05:17:09;6.10;;;3.10;;
41964;SDS011;50120;53.250;8.702;2022-07-23T05:19:35;3.92;;;2.85;;
41964;SDS011;50120;53.250;8.702;2022-07-23T05:22:01;6.05;;;3.70;;
41964;SDS011;50120;53.250;8.702;2022-07-23T05:24:27;5.78;;;2.80;;
41964;SDS011;50120;53.250;8.702;2022-07-23T05:26:54;4.40;;;2.78;;
41964;SDS011;50120;53.250;8.702;2022-07-23T05:29:19;6.03;;;2.67;;
41964;SDS011;50120;53.250;8.702;2022-07-23T05:31:45;5.00;;;2.70;;
41964;SDS011;50120;53.250;8.702;2022-07-23T05:34:11;5.60;;;2.85;;
41964;SDS011;50120;53.250;8.702;2022-07-23T05:36:37;6.57;;;2.67;;
41964;SDS011;50120;53.250;8.702;2022-07-23T05:39:03;8.35;;;2.33;;
41964;SDS011;50120;53.250;8.702;2022-07-23T05:41:29;4.45;;;2.50;;
41964;SDS011;50120;53.250;8.702;2022-07-23T05:43:56;3.85;;;2.10;;
41964;SDS011;50120;53.250;8.702;2022-07-23T05:46:22;6.65;;;1.95;;
41964;SDS011;50120;53.250;8.702;2022-07-23T05:48:47;4.72;;;2.08;;
41964;SDS011;50120;53.250;8.702;2022-07-23T05:51:24;8.80;;;2.30;;
41964;SDS011;50120;53.250;8.702;2022-07-23T05:53:50;4.65;;;1.98;;
41964;SDS011;50120;53.250;8.702;2022-07-23T05:56:17;3.00;;;1.67;;
41964;SDS011;50120;53.250;8.702;2022-07-23T05:58:43;4.47;;;1.58;;
41964;SDS011;50120;53.250;8.702;2022-07-23T06:01:09;2.28;;;1.50;;
41964;SDS011;50120;53.250;8.702;2022-07-23T06:03:36;6.38;;;1.50;;
41964;SDS011;50120;53.250;8.702;2022-07-23T06:06:03;2.75;;;1.42;;
41964;SDS011;50120;53.250;8.702;2022-07-23T06:08:29;2.97;;;1.48;;
41964;SDS011;50120;53.250;8.702;2022-07-23T06:10:54;5.97;;;1.70;;
41964;SDS011;50120;53.250;8.702;2022-07-23T06:13:20;2.50;;;1.40;;
41964;SDS011;50120;53.250;8.702;2022-07-23T06:15:46;4.97;;;1.85;;
41964;SDS011;50120;53.250;8.702;2022-07-23T06:18:11;2.97;;;1.50;;
41964;SDS011;50120;53.250;8.702;2022-07-23T06:20:37;2.38;;;1.50;;
41964;SDS011;50120;53.250;8.702;2022-07-23T06:23:03;2.50;;;1.63;;
41964;SDS011;50120;53.250;8.702;2022-07-23T06:25:29;1.52;;;1.13;;
41964;SDS011;50120;53.250;8.702;2022-07-23T06:27:55;1.98;;;1.40;;
41964;SDS011;50120;53.250;8.702;2022-07-23T06:30:21;2.25;;;1.45;;
41964;SDS011;50120;53.250;8.702;2022-07-23T06:32:47;2.00;;;1.33;;
41964;SDS011;50120;53.250;8.702;2022-07-23T06:35:13;1.95;;;1.20;;
41964;SDS011;50120;53.250;8.702;2022-07-23T06:37:39;3.83;;;1.63;;
41964;SDS011;50120;53.250;8.702;2022-07-23T06:40:04;1.92;;;1.38;;
41964;SDS011;50120;53.250;8.702;2022-07-23T06:42:31;2.72;;;1.40;;
41964;SDS011;50120;53.250;8.702;2022-07-23T06:44:56;4.13;;;1.60;;
41964;SDS011;50120;53.250;8.702;2022-07-23T06:47:22;4.55;;;1.40;;
41964;SDS011;50120;53.250;8.702;2022-07-23T06:49:48;6.38;;;1.55;;
41964;SDS011;50120;53.250;8.702;2022-07-23T06:52:14;2.85;;;1.48;;
41964;SDS011;50120;53.250;8.702;2022-07-23T06:54:39;3.17;;;1.77;;
41964;SDS011;50120;53.250;8.702;2022-07-23T06:57:05;2.83;;;1.48;;
41964;SDS011;50120;53.250;8.702;2022-07-23T06:59:31;2.95;;;1.45;;
41964;SDS011;50120;53.250;8.702;2022-07-23T07:01:58;2.88;;;1.20;;
41964;SDS011;50120;53.250;8.702;2022-07-23T07:04:23;2.97;;;1.30;;
41964;SDS011;50120;53.250;8.702;2022-07-23T07:06:49;3.25;;;1.20;;
41964;SDS011;50120;53.250;8.702;2022-07-23T07:09:15;2.85;;;1.20;;
41964;SDS011;50120;53.250;8.702;2022-07-23T07:11:40;3.63;;;1.30;;
41964;SDS011;50120;53.250;8.702;2022-07-23T07:14:06;3.72;;;0.95;;
41964;SDS011;50120;53.250;8.702;2022-07-23T07:16:32;2.08;;;1.30;;
41964;SDS011;50120;53.250;8.702;2022-07-23T07:18:58;1.33;;;1.00;;
41964;SDS011;50120;53.250;8.702;2022-07-23T07:21:23;5.80;;;1.42;;
41964;SDS011;50120;53.250;8.702;2022-07-23T07:23:49;1.90;;;1.00;;
41964;SDS011;50120;53.250;8.702;2022-07-23T07:26:15;1.98;;;1.10;;
41964;SDS011;50120;53.250;8.702;2022-07-23T07:28:41;3.13;;;1.48;;
41964;SDS011;50120;53.250;8.702;2022-07-23T07:31:06;2.13;;;1.40;;
41964;SDS011;50120;53.250;8.702;2022-07-23T07:33:32;4.50;;;1.70;;
41964;SDS011;50120;53.250;8.702;2022-07-23T07:35:58;4.50;;;1.80;;
41964;SDS011;50120;53.250;8.702;2022-07-23T07:38:23;2.30;;;1.08;;
41964;SDS011;50120;53.250;8.702;2022-07-23T07:40:49;2.45;;;1.75;;
41964;SDS011;50120;53.250;8.702;2022-07-23T07:43:15;5.20;;;1.70;;
41964;SDS011;50120;53.250;8.702;2022-07-23T07:45:41;3.53;;;1.70;;
41964;SDS011;50120;53.250;8.702;2022-07-23T07:48:06;3.63;;;1.50;;
41964;SDS011;50120;53.250;8.702;2022-07-23T07:50:32;3.85;;;1.35;;
41964;SDS011;50120;53.250;8.702;2022-07-23T07:52:58;2.60;;;1.20;;
41964;SDS011;50120;53.250;8.702;2022-07-23T07:55:23;2.42;;;1.30;;
41964;SDS011;50120;53.250;8.702;2022-07-23T07:57:49;3.05;;;1.38;;
41964;SDS011;50120;53.250;8.702;2022-07-23T08:00:15;3.83;;;1.63;;
41964;SDS011;50120;53.250;8.702;2022-07-23T08:02:48;2.53;;;1.40;;
41964;SDS011;50120;53.250;8.702;2022-07-23T08:05:22;1.27;;;1.02;;
41964;SDS011;50120;53.250;8.702;2022-07-23T08:07:50;3.47;;;1.23;;
41964;SDS011;50120;53.250;8.702;2022-07-23T08:10:16;3.28;;;1.30;;
41964;SDS011;50120;53.250;8.702;2022-07-23T08:12:44;1.35;;;1.08;;
41964;SDS011;50120;53.250;8.702;2022-07-23T08:15:12;1.15;;;1.00;;
41964;SDS011;50120;53.250;8.702;2022-07-23T08:17:38;4.30;;;1.10;;
41964;SDS011;50120;53.250;8.702;2022-07-23T08:20:05;5.50;;;1.08;;
41964;SDS011;50120;53.250;8.702;2022-07-23T08:22:42;1.52;;;1.05;;
41964;SDS011;50120;53.250;8.702;2022-07-23T08:25:16;1.00;;;0.73;;
41964;SDS011;50120;53.250;8.702;2022-07-23T08:27:45;2.13;;;0.80;;
41964;SDS011;50120;53.250;8.702;2022-07-23T08:30:12;2.55;;;0.70;;
41964;SDS011;50120;53.250;8.702;2022-07-23T08:32:54;2.38;;;0.60;;
41964;SDS011;50120;53.250;8.702;2022-07-23T08:35:25;1.50;;;0.77;;
41964;SDS011;50120;53.250;8.702;2022-07-23T08:37:56;2.13;;;0.70;;
41964;SDS011;50120;53.250;8.702;2022-07-23T08:40:22;0.52;;;0.52;;
41964;SDS011;50120;53.250;8.702;2022-07-23T08:42:51;1.27;;;0.60;;
41964;SDS011;50120;53.250;8.702;2022-07-23T08:45:17;1.65;;;0.57;;
41964;SDS011;50120;53.250;8.702;2022-07-23T08:47:47;2.13;;;0.63;;
41964;SDS011;50120;53.250;8.702;2022-07-23T08:50:18;2.35;;;0.70;;
41964;SDS011;50120;53.250;8.702;2022-07-23T08:52:44;2.58;;;0.70;;
41964;SDS011;50120;53.250;8.702;2022-07-23T08:55:10;1.15;;;0.80;;
41964;SDS011;50120;53.250;8.702;2022-07-23T08:57:37;0.80;;;0.55;;
41964;SDS011;50120;53.250;8.702;2022-07-23T09:00:03;1.52;;;0.88;;
41964;SDS011;50120;53.250;8.702;2022-07-23T09:02:34;2.15;;;0.80;;
41964;SDS011;50120;53.250;8.702;2022-07-23T09:05:04;1.20;;;0.65;;
41964;SDS011;50120;53.250;8.702;2022-07-23T09:07:31;1.20;;;0.70;;
41964;SDS011;50120;53.250;8.702;2022-07-23T09:10:04;1.52;;;0.80;;
41964;SDS011;50120;53.250;8.702;2022-07-23T09:12:34;2.65;;;0.90;;
41964;SDS011;50120;53.250;8.702;2022-07-23T09:15:04;2.50;;;0.70;;
41964;SDS011;50120;53.250;8.702;2022-07-23T09:17:41;1.77;;;0.68;;
41964;SDS011;50120;53.250;8.702;2022-07-23T09:20:15;2.00;;;0.50;;
41964;SDS011;50120;53.250;8.702;2022-07-23T09:22:45;1.27;;;0.70;;
41964;SDS011;50120;53.250;8.702;2022-07-23T09:25:13;4.78;;;0.77;;
41964;SDS011;50120;53.250;8.702;2022-07-23T09:27:59;3.42;;;0.85;;
41964;SDS011;50120;53.250;8.702;2022-07-23T09:30:28;3.28;;;0.50;;
41964;SDS011;50120;53.250;8.702;2022-07-23T09:33:11;0.88;;;0.70;;
41964;SDS011;50120;53.250;8.702;2022-07-23T09:35:44;1.30;;;0.50;;
41964;SDS011;50120;53.250;8.702;2022-07-23T09:38:18;1.75;;;0.65;;
41964;SDS011;50120;53.250;8.702;2022-07-23T09:40:45;1.85;;;0.70;;
41964;SDS011;50120;53.250;8.702;2022-07-23T09:43:12;1.85;;;0.70;;
41964;SDS011;50120;53.250;8.702;2022-07-23T09:45:51;0.90;;;0.60;;
41964;SDS011;50120;53.250;8.702;2022-07-23T09:48:17;2.20;;;0.80;;
41964;SDS011;50120;53.250;8.702;2022-07-23T09:50:43;0.88;;;0.50;;
41964;SDS011;50120;53.250;8.702;2022-07-23T09:53:10;1.02;;;0.65;;
41964;SDS011;50120;53.250;8.702;2022-07-23T09:55:49;0.80;;;0.55;;
41964;SDS011;50120;53.250;8.702;2022-07-23T09:58:19;4.40;;;0.70;;
41964;SDS011;50120;53.250;8.702;2022-07-23T10:00:47;0.80;;;0.57;;
41964;SDS011;50120;53.250;8.702;2022-07-23T10:03:15;2.05;;;0.63;;
41964;SDS011;50120;53.250;8.702;2022-07-23T10:05:42;1.25;;;0.68;;
41964;SDS011;50120;53.250;8.702;2022-07-23T10:08:11;5.00;;;0.70;;
41964;SDS011;50120;53.250;8.702;2022-07-23T10:10:38;0.70;;;0.60;;
41964;SDS011;50120;53.250;8.702;2022-07-23T10:13:05;0.60;;;0.55;;
41964;SDS011;50120;53.250;8.702;2022-07-23T10:15:50;0.50;;;0.50;;
41964;SDS011;50120;53.250;8.702;2022-07-23T10:18:16;1.02;;;0.65;;
41964;SDS011;50120;53.250;8.702;2022-07-23T10:20:42;3.70;;;0.55;;
41964;SDS011;50120;53.250;8.702;2022-07-23T10:26:03;2.80;;;0.73;;
41964;SDS011;50120;53.250;8.702;2022-07-23T10:34:19;1.88;;;0.60;;
41964;SDS011;50120;53.250;8.702;2022-07-23T10:40:13;2.53;;;0.60;;
41964;SDS011;50120;53.250;8.702;2022-07-23T10:42:44;0.50;;;0.50;;
41964;SDS011;50120;53.250;8.702;2022-07-23T10:47:54;0.88;;;0.60;;
41964;SDS011;50120;53.250;8.702;2022-07-23T10:50:33;3.05;;;0.70;;
41964;SDS011;50120;53.250;8.702;2022-07-23T10:53:17;1.40;;;0.70;;
41964;SDS011;50120;53.250;8.702;2022-07-23T10:55:44;3.65;;;0.75;;
41964;SDS011;50120;53.250;8.702;2022-07-23T10:58:16;2.28;;;0.60;;
41964;SDS011;50120;53.250;8.702;2022-07-23T11:00:47;0.60;;;0.60;;
41964;SDS011;50120;53.250;8.702;2022-07-23T11:03:32;1.02;;;0.50;;
41964;SDS011;50120;53.250;8.702;2022-07-23T11:06:02;1.05;;;0.60;;
41964;SDS011;50120;53.250;8.702;2022-07-23T11:08:28;0.75;;;0.47;;
41964;SDS011;50120;53.250;8.702;2022-07-23T11:13:33;2.63;;;0.80;;
41964;SDS011;50120;53.250;8.702;2022-07-23T11:16:13;0.70;;;0.55;;
41964;SDS011;50120;53.250;8.702;2022-07-23T11:24:09;1.55;;;0.60;;
41964;SDS011;50120;53.250;8.702;2022-07-23T11:36:59;0.98;;;0.50;;
41964;SDS011;50120;53.250;8.702;2022-07-23T11:39:29;0.65;;;0.40;;
41964;SDS011;50120;53.250;8.702;2022-07-23T11:41:56;0.85;;;0.40;;
41964;SDS011;50120;53.250;8.702;2022-07-23T11:44:27;0.95;;;0.60;;
41964;SDS011;50120;53.250;8.702;2022-07-23T11:47:08;1.45;;;0.60;;
41964;SDS011;50120;53.250;8.702;2022-07-23T11:49:36;1.27;;;0.70;;
41964;SDS011;50120;53.250;8.702;2022-07-23T11:54:54;0.65;;;0.55;;
41964;SDS011;50120;53.250;8.702;2022-07-23T11:57:32;1.35;;;0.63;;
41964;SDS011;50120;53.250;8.702;2022-07-23T12:00:08;3.75;;;1.40;;
41964;SDS011;50120;53.250;8.702;2022-07-23T12:02:42;2.50;;;1.10;;
41964;SDS011;50120;53.250;8.702;2022-07-23T12:05:16;1.88;;;0.80;;
41964;SDS011;50120;53.250;8.702;2022-07-23T12:07:47;2.60;;;0.70;;
41964;SDS011;50120;53.250;8.702;2022-07-23T12:10:19;1.52;;;0.80;;
41964;SDS011;50120;53.250;8.702;2022-07-23T12:12:59;1.42;;;0.70;;
41964;SDS011;50120;53.250;8.702;2022-07-23T12:15:32;1.25;;;0.60;;
41964;SDS011;50120;53.250;8.702;2022-07-23T12:18:00;0.63;;;0.60;;
41964;SDS011;50120;53.250;8.702;2022-07-23T12:20:27;0.77;;;0.70;;
41964;SDS011;50120;53.250;8.702;2022-07-23T12:22:56;1.38;;;0.75;;
41964;SDS011;50120;53.250;8.702;2022-07-23T12:25:25;1.60;;;1.13;;
41964;SDS011;50120;53.250;8.702;2022-07-23T12:30:42;3.53;;;1.65;;
41964;SDS011;50120;53.250;8.702;2022-07-23T12:35:48;1.02;;;0.80;;
41964;SDS011;50120;53.250;8.702;2022-07-23T12:38:15;1.10;;;0.98;;
41964;SDS011;50120;53.250;8.702;2022-07-23T12:43:11;1.98;;;0.70;;
41964;SDS011;50120;53.250;8.702;2022-07-23T12:45:50;4.00;;;2.05;;
41964;SDS011;50120;53.250;8.702;2022-07-23T12:48:27;1.73;;;1.27;;
41964;SDS011;50120;53.250;8.702;2022-07-23T12:50:55;1.85;;;0.98;;
41964;SDS011;50120;53.250;8.702;2022-07-23T12:53:27;1.33;;;0.60;;
41964;SDS011;50120;53.250;8.702;2022-07-23T12:56:00;3.38;;;1.52;;
41964;SDS011;50120;53.250;8.702;2022-07-23T12:58:45;0.98;;;0.60;;
41964;SDS011;50120;53.250;8.702;2022-07-23T13:06:26;3.60;;;0.68;;
41964;SDS011;50120;53.250;8.702;2022-07-23T13:08:57;3.22;;;0.80;;
41964;SDS011;50120;53.250;8.702;2022-07-23T13:11:23;2.17;;;0.90;;
41964;SDS011;50120;53.250;8.702;2022-07-23T13:13:48;1.10;;;0.70;;
41964;SDS011;50120;53.250;8.702;2022-07-23T13:16:14;1.98;;;0.68;;
41964;SDS011;50120;53.250;8.702;2022-07-23T13:18:40;1.10;;;0.50;;
41964;SDS011;50120;53.250;8.702;2022-07-23T13:21:06;1.67;;;0.70;;
41964;SDS011;50120;53.250;8.702;2022-07-23T13:23:32;1.33;;;0.80;;
41964;SDS011;50120;53.250;8.702;2022-07-23T13:25:58;2.92;;;0.77;;
41964;SDS011;50120;53.250;8.702;2022-07-23T13:28:23;4.43;;;1.88;;
41964;SDS011;50120;53.250;8.702;2022-07-23T13:30:50;2.60;;;1.10;;
41964;SDS011;50120;53.250;8.702;2022-07-23T13:33:17;1.35;;;1.00;;
41964;SDS011;50120;53.250;8.702;2022-07-23T13:35:47;1.88;;;0.88;;
41964;SDS011;50120;53.250;8.702;2022-07-23T13:38:14;1.25;;;0.80;;
41964;SDS011;50120;53.250;8.702;2022-07-23T13:40:40;1.92;;;0.80;;
41964;SDS011;50120;53.250;8.702;2022-07-23T13:43:08;2.15;;;0.80;;
41964;SDS011;50120;53.250;8.702;2022-07-23T13:45:35;1.50;;;0.80;;
41964;SDS011;50120;53.250;8.702;2022-07-23T13:48:02;1.90;;;0.90;;
41964;SDS011;50120;53.250;8.702;2022-07-23T13:50:30;2.03;;;0.70;;
41964;SDS011;50120;53.250;8.702;2022-07-23T13:52:56;3.08;;;1.00;;
41964;SDS011;50120;53.250;8.702;2022-07-23T13:55:22;1.45;;;0.70;;
41964;SDS011;50120;53.250;8.702;2022-07-23T13:57:47;2.05;;;0.77;;
41964;SDS011;50120;53.250;8.702;2022-07-23T14:00:13;0.90;;;0.70;;
41964;SDS011;50120;53.250;8.702;2022-07-23T14:02:40;1.30;;;0.80;;
41964;SDS011;50120;53.250;8.702;2022-07-23T14:05:07;0.95;;;0.82;;
41964;SDS011;50120;53.250;8.702;2022-07-23T14:07:34;1.90;;;0.80;;
41964;SDS011;50120;53.250;8.702;2022-07-23T14:10:01;0.77;;;0.60;;
41964;SDS011;50120;53.250;8.702;2022-07-23T14:12:28;2.63;;;1.10;;
41964;SDS011;50120;53.250;8.702;2022-07-23T14:14:54;4.43;;;0.90;;
41964;SDS011;50120;53.250;8.702;2022-07-23T14:17:20;3.38;;;1.08;;
41964;SDS011;50120;53.250;8.702;2022-07-23T14:19:46;1.02;;;0.77;;
41964;SDS011;50120;53.250;8.702;2022-07-23T14:22:12;2.70;;;0.80;;
41964;SDS011;50120;53.250;8.702;2022-07-23T14:24:39;3.13;;;0.80;;
41964;SDS011;50120;53.250;8.702;2022-07-23T14:27:05;1.27;;;0.63;;
41964;SDS011;50120;53.250;8.702;2022-07-23T14:29:30;2.28;;;0.73;;
41964;SDS011;50120;53.250;8.702;2022-07-23T14:31:57;1.90;;;0.90;;
41964;SDS011;50120;53.250;8.702;2022-07-23T14:34:23;2.25;;;0.80;;
41964;SDS011;50120;53.250;8.702;2022-07-23T14:36:48;1.50;;;0.77;;
41964;SDS011;50120;53.250;8.702;2022-07-23T14:39:14;3.25;;;0.80;;
41964;SDS011;50120;53.250;8.702;2022-07-23T14:41:40;1.55;;;0.60;;
41964;SDS011;50120;53.250;8.702;2022-07-23T14:44:06;2.25;;;0.75;;
41964;SDS011;50120;53.250;8.702;2022-07-23T14:46:32;0.50;;;0.50;;
41964;SDS011;50120;53.250;8.702;2022-07-23T14:48:58;1.10;;;0.70;;
41964;SDS011;50120;53.250;8.702;2022-07-23T14:51:24;2.47;;;0.60;;
41964;SDS011;50120;53.250;8.702;2022-07-23T14:53:50;0.75;;;0.60;;
41964;SDS011;50120;53.250;8.702;2022-07-23T14:56:15;4.38;;;0.80;;
41964;SDS011;50120;53.250;8.702;2022-07-23T14:58:41;0.88;;;0.57;;
41964;SDS011;50120;53.250;8.702;2022-07-23T15:01:07;1.85;;;0.73;;
41964;SDS011;50120;53.250;8.702;2022-07-23T15:03:33;4.90;;;0.90;;
41964;SDS011;50120;53.250;8.702;2022-07-23T15:05:59;1.80;;;0.60;;
41964;SDS011;50120;53.250;8.702;2022-07-23T15:08:25;3.90;;;0.70;;
41964;SDS011;50120;53.250;8.702;2022-07-23T15:10:51;3.05;;;0.63;;
41964;SDS011;50120;53.250;8.702;2022-07-23T15:13:16;1.38;;;0.77;;
41964;SDS011;50120;53.250;8.702;2022-07-23T15:15:43;1.90;;;0.60;;
41964;SDS011;50120;53.250;8.702;2022-07-23T15:18:09;5.00;;;2.35;;
41964;SDS011;50120;53.250;8.702;2022-07-23T15:20:35;2.10;;;0.90;;
41964;SDS011;50120;53.250;8.702;2022-07-23T15:23:03;1.50;;;0.93;;
41964;SDS011;50120;53.250;8.702;2022-07-23T15:25:32;7.60;;;5.15;;
41964;SDS011;50120;53.250;8.702;2022-07-23T15:27:58;3.78;;;1.83;;
41964;SDS011;50120;53.250;8.702;2022-07-23T15:30:24;7.38;;;3.50;;
41964;SDS011;50120;53.250;8.702;2022-07-23T15:32:51;8.18;;;3.60;;
41964;SDS011;50120;53.250;8.702;2022-07-23T15:35:17;3.78;;;2.88;;
41964;SDS011;50120;53.250;8.702;2022-07-23T15:37:44;3.08;;;1.85;;
41964;SDS011;50120;53.250;8.702;2022-07-23T15:40:10;3.13;;;1.55;;